Aeroporto :
LOGIN :

Iscrizione | Disclaimer

   EN    FR    IT 

 










Sommario :    VFR   VFR Marginale   IFR   IFR Intensivo   IFR Molto Intensivo
Visibilità : 
Base nubi : 
>= 8 km
>= 3000ft
5 / 8 km
1000 / 3000 ft
1500m / 5 km
500 / 1000 ft
800 / 1500m
200 / 500 ft
< 800m
< 200 ft
Simboli :   Temporali  Nebbia  Neve Forte  Precipitazioni Forti  Vento > 20 kt
SIGMETs :   Varie  Temporali  Ghiacco  Turbolenza  Onda orograficha  Ceneri Vulcaniche






- Altitudine del aeroporto : 401 ft
- Codice IATA : LEQ


EGHC - Land's End

ULTIMO METAR :
  • 151720Z 01020KT 9999 FEW009 SCT016 08/04 Q1008

METARs OBSOLETI :
  • 151650Z 01018KT 9999 FEW010 SCT020 08/04 Q1007
  • 151620Z 02017KT 9999 -SHRA FEW009 SCT016 08/05 Q1008
  • 151550Z 02019KT 9999 FEW009 07/05 Q1007
  • 151520Z 02020KT 9999 -SHRA FEW008 FEW018CB 08/05 Q1007
  • 151450Z 02017KT 9999 VCSH FEW008 SCT020CB 08/05 Q1007

Previsioni scadute.



MetMap, La meteo Aeronautica in un colpo d'occhio ! - Copyright ORBIFLY Dicembre 2007 - Disclaimer

ORBIFLY MET'MAP TEAM :

Programmazione e sviluppo : Alexandra Zaïnal
Concezione e sviluppo : Baudouin d'Aumeries
Co-Programmazione e sviluppo : Marc-Olivier Méhu
Supporto tecnico e logistico : Manuel Goepfert
Aiuto per la traduzione : Arnaldo La Scala

Contatto : metmap@orbifly.com




FONTI E CREDITI :

   NOAA